createdAt,value
2022-12-22T00:02:38.798Z,35.30
2022-12-22T00:05:41.171Z,36.38
2022-12-22T00:08:27.287Z,35.60
2022-12-22T00:11:13.829Z,37.20
2022-12-22T00:14:01.359Z,34.63
2022-12-22T00:16:51.329Z,36.97
2022-12-22T00:19:36.889Z,37.13
2022-12-22T00:22:32.181Z,36.72
2022-12-22T00:25:17.577Z,35.97
2022-12-22T00:28:03.031Z,38.85
2022-12-22T00:30:48.247Z,39.50
2022-12-22T00:33:37.121Z,37.65
2022-12-22T00:36:24.567Z,37.85
2022-12-22T00:39:09.739Z,36.28
2022-12-22T00:44:39.758Z,38.92
2022-12-22T00:47:32.165Z,38.15
2022-12-22T00:50:17.897Z,39.35
2022-12-22T00:53:03.114Z,40.58
2022-12-22T00:55:49.880Z,41.63
2022-12-22T00:58:37.429Z,38.63
2022-12-22T01:01:23.099Z,39.10
2022-12-22T01:04:08.166Z,43.53
2022-12-22T01:06:54.786Z,43.83
2022-12-22T01:09:41.971Z,44.00
2022-12-22T01:12:36.638Z,44.75
2022-12-22T01:15:22.034Z,42.83
2022-12-22T01:18:06.748Z,41.80
2022-12-22T01:20:51.998Z,41.58
2022-12-22T01:23:37.246Z,43.10
2022-12-22T01:26:22.744Z,44.42
2022-12-22T01:29:07.557Z,42.45
2022-12-22T01:31:52.666Z,41.42
2022-12-22T01:37:22.571Z,40.75
2022-12-22T01:40:07.243Z,44.08
2022-12-22T01:42:53.717Z,42.97
2022-12-22T01:45:47.677Z,43.75
2022-12-22T01:48:35.300Z,43.58
2022-12-22T01:51:34.456Z,46.60
2022-12-22T01:54:19.960Z,46.17
2022-12-22T01:57:06.989Z,45.72
2022-12-22T01:59:52.593Z,45.22
2022-12-22T02:02:39.987Z,43.75
2022-12-22T02:05:29.303Z,45.92
2022-12-22T02:08:37.469Z,44.35
2022-12-22T02:11:48.234Z,44.92
2022-12-22T02:15:02.073Z,44.00
2022-12-22T02:17:51.682Z,43.47
2022-12-22T02:21:05.881Z,43.45
2022-12-22T02:24:07.046Z,43.03
2022-12-22T02:27:10.660Z,45.28
2022-12-22T02:30:02.042Z,42.78
2022-12-22T02:32:53.099Z,44.42
2022-12-22T02:35:38.652Z,46.00
2022-12-22T02:38:37.728Z,48.17
2022-12-22T02:41:42.038Z,45.80
2022-12-22T02:45:06.843Z,45.40
2022-12-22T02:48:03.785Z,45.63
2022-12-22T02:50:53.602Z,44.38
2022-12-22T02:53:39.406Z,43.30
2022-12-22T02:56:27.363Z,45.30
2022-12-22T02:59:13.099Z,48.50
2022-12-22T03:02:00.160Z,45.78
2022-12-22T03:04:45.072Z,46.33
2022-12-22T03:07:30.063Z,46.33
2022-12-22T03:10:15.544Z,44.05
2022-12-22T03:13:00.913Z,46.58
2022-12-22T03:15:45.853Z,45.22
2022-12-22T03:18:31.802Z,46.30
2022-12-22T03:21:17.738Z,46.65
2022-12-22T03:24:03.050Z,45.30
2022-12-22T03:26:31.173Z,43.50
2022-12-22T03:28:57.789Z,46.60
2022-12-22T03:31:24.454Z,46.78
2022-12-22T03:33:51.146Z,45.35
2022-12-22T03:36:17.671Z,45.13
2022-12-22T03:38:44.266Z,43.47
2022-12-22T03:41:30.764Z,42.40
2022-12-22T03:44:15.582Z,41.40
2022-12-22T03:46:42.162Z,41.58
2022-12-22T03:49:11.670Z,43.70
2022-12-22T03:51:50.944Z,40.95
2022-12-22T03:54:19.741Z,40.50
2022-12-22T03:56:47.156Z,42.05
2022-12-22T03:59:13.925Z,39.40
2022-12-22T04:01:43.988Z,42.30
2022-12-22T04:04:12.549Z,40.30
2022-12-22T04:06:39.575Z,40.88
2022-12-22T04:09:08.158Z,41.17
2022-12-22T04:11:53.995Z,41.75
2022-12-22T04:14:21.692Z,41.83
2022-12-22T04:16:48.968Z,41.53
2022-12-22T04:19:16.167Z,41.65
2022-12-22T04:21:43.907Z,43.60
2022-12-22T04:24:14.548Z,41.72
2022-12-22T04:26:41.134Z,44.10
2022-12-22T04:29:07.965Z,48.20
2022-12-22T04:31:34.577Z,45.30
2022-12-22T04:34:01.210Z,48.17
2022-12-22T04:36:27.782Z,48.47
2022-12-22T04:38:54.372Z,48.45
2022-12-22T04:41:21.015Z,46.95
2022-12-22T04:43:47.633Z,51.33
2022-12-22T04:46:14.339Z,50.83
2022-12-22T04:48:41.937Z,51.22
2022-12-22T04:51:08.519Z,53.97
2022-12-22T04:53:35.461Z,50.13
2022-12-22T04:56:05.047Z,53.25
2022-12-22T04:58:32.200Z,51.05
2022-12-22T05:01:09.142Z,51.80
2022-12-22T05:03:35.893Z,53.47
2022-12-22T05:06:02.504Z,55.20
2022-12-22T05:08:29.047Z,56.63
2022-12-22T05:10:55.600Z,57.33
2022-12-22T05:13:22.193Z,55.95
2022-12-22T05:15:48.741Z,54.15
2022-12-22T05:18:15.436Z,55.72
2022-12-22T05:20:42.085Z,60.03
2022-12-22T05:23:08.660Z,58.90
2022-12-22T05:25:35.765Z,56.30
2022-12-22T05:28:02.921Z,59.08
2022-12-22T05:30:29.529Z,62.17
2022-12-22T05:32:56.136Z,62.15
2022-12-22T05:35:22.808Z,60.10
2022-12-22T05:37:49.389Z,60.55
2022-12-22T05:40:16.188Z,66.57
2022-12-22T05:42:42.771Z,60.83
2022-12-22T05:45:18.337Z,62.25
2022-12-22T05:47:47.461Z,60.65
2022-12-22T05:50:17.488Z,61.50
2022-12-22T05:52:44.427Z,62.58
2022-12-22T05:55:11.863Z,62.80
2022-12-22T05:57:38.550Z,62.25
2022-12-22T06:00:10.744Z,60.08
2022-12-22T06:02:37.393Z,64.70
2022-12-22T06:05:04.451Z,64.72
2022-12-22T06:07:31.094Z,61.53
2022-12-22T06:09:57.674Z,64.85
2022-12-22T06:12:24.277Z,67.88
2022-12-22T06:14:50.944Z,63.40
2022-12-22T06:17:17.581Z,68.05
2022-12-22T06:19:45.399Z,63.97
2022-12-22T06:22:11.976Z,64.97
2022-12-22T06:24:38.524Z,64.82
2022-12-22T06:27:05.623Z,64.90
2022-12-22T06:29:32.271Z,67.25
2022-12-22T06:31:58.883Z,62.33
2022-12-22T06:34:25.438Z,68.22
2022-12-22T06:36:54.315Z,64.50
2022-12-22T06:39:21.723Z,69.63
2022-12-22T06:42:07.971Z,66.18
2022-12-22T06:47:01.026Z,57.92
2022-12-22T06:49:27.703Z,63.85
2022-12-22T06:51:54.568Z,66.53
2022-12-22T06:54:26.090Z,65.53
2022-12-22T06:56:53.221Z,66.93
2022-12-22T06:59:19.842Z,64.95
2022-12-22T07:01:46.586Z,67.90
2022-12-22T07:04:19.687Z,67.60
2022-12-22T07:06:47.861Z,68.47
2022-12-22T07:09:14.563Z,68.40
2022-12-22T07:11:41.670Z,69.82
2022-12-22T07:14:08.309Z,69.22
2022-12-22T07:16:35.049Z,72.38
2022-12-22T07:19:01.676Z,71.25
2022-12-22T07:21:28.274Z,199.80
2022-12-22T07:23:54.861Z,74.18
2022-12-22T07:26:21.513Z,68.68
2022-12-22T07:28:48.135Z,73.00
2022-12-22T07:31:17.349Z,71.97
2022-12-22T07:33:44.099Z,76.30
2022-12-22T07:36:14.221Z,70.90
2022-12-22T07:38:43.138Z,73.60
2022-12-22T07:41:30.197Z,74.13
2022-12-22T07:43:58.822Z,73.55
2022-12-22T07:46:29.705Z,76.15
2022-12-22T07:49:15.150Z,71.90
2022-12-22T07:51:42.647Z,72.57
2022-12-22T07:54:11.425Z,70.78
2022-12-22T07:56:38.718Z,75.53
2022-12-22T07:59:06.019Z,71.32
2022-12-22T08:01:32.846Z,72.43
2022-12-22T08:03:59.532Z,69.53
2022-12-22T08:06:26.796Z,71.10
2022-12-22T08:08:54.420Z,74.07
2022-12-22T08:11:20.949Z,80.88
2022-12-22T08:13:47.723Z,66.95
2022-12-22T08:16:14.650Z,69.03
2022-12-22T08:18:41.984Z,70.72
2022-12-22T08:21:08.815Z,69.35
2022-12-22T08:23:36.567Z,69.30
2022-12-22T08:26:27.094Z,67.65
2022-12-22T08:28:59.411Z,64.50
2022-12-22T08:31:29.280Z,68.72
2022-12-22T08:33:58.989Z,64.22
2022-12-22T08:36:26.544Z,69.13
2022-12-22T08:38:53.334Z,65.00
2022-12-22T08:41:39.916Z,66.72
2022-12-22T08:44:06.524Z,65.15
2022-12-22T08:46:33.179Z,62.13
2022-12-22T08:48:59.812Z,63.65
2022-12-22T08:51:26.356Z,64.65
2022-12-22T08:54:08.137Z,58.35
2022-12-22T08:56:35.824Z,61.72
2022-12-22T08:59:07.782Z,60.03
2022-12-22T09:01:37.076Z,58.47
2022-12-22T09:04:04.986Z,58.63
2022-12-22T09:06:40.135Z,57.17
2022-12-22T09:09:10.385Z,57.95
2022-12-22T09:11:37.776Z,59.20
2022-12-22T09:14:05.320Z,61.88
2022-12-22T09:16:33.807Z,60.55
2022-12-22T09:19:01.593Z,60.22
2022-12-22T09:21:28.989Z,60.47
2022-12-22T09:23:56.454Z,55.35
2022-12-22T09:26:25.228Z,52.28
2022-12-22T09:28:52.601Z,51.10
2022-12-22T09:31:21.111Z,48.83
2022-12-22T09:33:48.377Z,50.95
2022-12-22T09:36:17.893Z,49.92
2022-12-22T09:38:46.028Z,48.20
2022-12-22T09:41:19.408Z,49.63
2022-12-22T09:43:46.455Z,52.40
2022-12-22T09:46:22.830Z,53.58
2022-12-22T09:48:50.087Z,47.30
2022-12-22T09:51:22.730Z,47.05
2022-12-22T09:53:57.360Z,46.78
2022-12-22T09:56:26.561Z,46.70
2022-12-22T09:58:53.149Z,45.97
2022-12-22T10:01:25.886Z,45.75
2022-12-22T10:04:01.336Z,43.70
2022-12-22T10:06:55.091Z,45.90
2022-12-22T10:09:48.785Z,53.08
2022-12-22T10:12:16.643Z,43.80
2022-12-22T10:14:46.542Z,46.30
2022-12-22T10:17:24.149Z,46.65
2022-12-22T10:19:54.276Z,46.85
2022-12-22T10:22:24.503Z,46.78
2022-12-22T10:24:51.168Z,44.45
2022-12-22T10:27:23.060Z,44.55
2022-12-22T10:32:21.341Z,39.92
2022-12-22T10:35:06.194Z,36.72
2022-12-22T10:37:37.483Z,40.25
2022-12-22T10:40:21.239Z,38.03
2022-12-22T10:42:55.237Z,36.00
2022-12-22T10:45:25.924Z,37.33
2022-12-22T10:47:55.359Z,38.80
2022-12-22T10:50:22.673Z,39.17
2022-12-22T10:52:52.287Z,38.33
2022-12-22T10:55:26.200Z,40.00
2022-12-22T10:58:14.478Z,38.03
2022-12-22T11:00:41.728Z,38.70
2022-12-22T11:03:20.609Z,39.53
2022-12-22T11:05:49.055Z,38.45
2022-12-22T11:08:22.889Z,38.40
2022-12-22T11:10:55.617Z,40.07
2022-12-22T11:13:37.277Z,42.97
2022-12-22T11:16:14.533Z,41.38
2022-12-22T11:18:53.208Z,43.03
2022-12-22T11:21:43.216Z,42.85
2022-12-22T11:24:18.685Z,41.47
2022-12-22T11:27:01.640Z,41.10
2022-12-22T11:29:47.018Z,40.17
2022-12-22T11:32:49.801Z,38.13
2022-12-22T11:35:43.524Z,39.92
2022-12-22T11:38:12.995Z,40.50
2022-12-22T11:40:46.790Z,40.63
2022-12-22T11:43:24.237Z,40.00
2022-12-22T11:46:16.289Z,37.22
2022-12-22T11:49:01.198Z,37.47
2022-12-22T11:51:36.797Z,38.30
2022-12-22T11:54:32.723Z,37.85
2022-12-22T11:57:20.158Z,36.60
2022-12-22T12:00:05.403Z,36.42
2022-12-22T12:03:04.599Z,35.60
2022-12-22T12:05:31.191Z,37.08
2022-12-22T12:08:35.804Z,34.35
2022-12-22T12:11:18.490Z,35.25
2022-12-22T12:13:50.916Z,40.67
2022-12-22T12:16:55.935Z,37.60
2022-12-22T12:19:26.850Z,38.83
2022-12-22T12:21:59.982Z,37.50
2022-12-22T12:24:33.947Z,37.08
2022-12-22T12:27:22.247Z,39.22
2022-12-22T12:33:47.706Z,38.90
2022-12-22T12:36:43.198Z,38.33
2022-12-22T12:42:01.476Z,38.25
2022-12-22T12:44:33.526Z,35.65
2022-12-22T12:47:25.155Z,34.03
2022-12-22T12:49:57.146Z,33.95
2022-12-22T12:52:38.642Z,37.95
2022-12-22T12:55:32.341Z,36.30
2022-12-22T12:58:02.157Z,39.08
2022-12-22T13:00:34.705Z,37.13
2022-12-22T13:03:19.998Z,36.65
2022-12-22T13:05:59.775Z,39.63
2022-12-22T13:09:22.319Z,38.75
2022-12-22T13:12:14.540Z,38.22
2022-12-22T13:14:55.429Z,39.50
2022-12-22T13:17:50.297Z,42.60
2022-12-22T13:20:25.483Z,44.03
2022-12-22T13:22:57.045Z,46.13
2022-12-22T13:25:26.899Z,47.92
2022-12-22T13:27:56.668Z,44.88
2022-12-22T13:30:23.950Z,43.05
2022-12-22T13:32:50.889Z,44.10
2022-12-22T13:35:42.954Z,45.05
2022-12-22T13:38:45.900Z,42.15
2022-12-22T13:41:27.489Z,44.60
2022-12-22T13:44:04.077Z,44.78
2022-12-22T13:46:34.696Z,45.85
2022-12-22T13:49:04.890Z,46.05
2022-12-22T13:51:35.881Z,49.20
2022-12-22T13:54:33.543Z,47.15
2022-12-22T13:57:03.223Z,50.17
2022-12-22T13:59:34.687Z,51.55
2022-12-22T14:02:15.510Z,50.47
2022-12-22T14:05:03.798Z,49.95
2022-12-22T14:07:30.987Z,50.90
2022-12-22T14:09:59.474Z,53.53
2022-12-22T14:12:32.385Z,58.17
2022-12-22T14:15:03.028Z,55.88
2022-12-22T14:17:37.922Z,56.72
2022-12-22T14:20:26.901Z,54.03
2022-12-22T14:23:02.733Z,54.30
2022-12-22T14:25:33.655Z,57.25
2022-12-22T14:28:01.332Z,55.38
2022-12-22T14:30:40.901Z,55.85
2022-12-22T14:33:16.492Z,56.15
2022-12-22T14:35:43.360Z,55.25
2022-12-22T14:38:26.756Z,55.03
2022-12-22T14:40:57.599Z,55.05
2022-12-22T14:43:26.887Z,52.55
2022-12-22T14:46:06.301Z,52.30
2022-12-22T14:48:39.875Z,50.20
2022-12-22T14:51:07.215Z,51.20
2022-12-22T14:53:39.965Z,50.35
2022-12-22T14:56:12.417Z,46.38
2022-12-22T14:58:42.044Z,48.00
2022-12-22T15:01:28.703Z,49.15
2022-12-22T15:04:02.263Z,46.22
2022-12-22T15:06:28.816Z,47.50
2022-12-22T15:09:13.410Z,49.40
2022-12-22T15:11:46.354Z,46.65
2022-12-22T15:14:23.410Z,44.95
2022-12-22T15:16:50.941Z,47.45
2022-12-22T15:19:20.887Z,46.15
2022-12-22T15:21:47.435Z,42.58
2022-12-22T15:24:16.893Z,47.38
2022-12-22T15:26:44.939Z,47.50
2022-12-22T15:29:11.847Z,55.90
2022-12-22T15:31:39.858Z,47.25
2022-12-22T15:34:15.138Z,50.85
2022-12-22T15:36:41.732Z,53.45
2022-12-22T15:39:16.928Z,58.53
2022-12-22T15:41:44.698Z,58.50
2022-12-22T15:44:11.791Z,67.40
2022-12-22T15:46:40.316Z,63.92
2022-12-22T15:49:13.895Z,62.35
2022-12-22T15:51:40.636Z,59.75
2022-12-22T15:54:13.038Z,61.95
2022-12-22T15:56:39.861Z,67.50
2022-12-22T15:59:06.616Z,76.25
2022-12-22T16:01:33.276Z,70.90
2022-12-22T16:03:59.942Z,74.28
2022-12-22T16:06:26.591Z,71.68
2022-12-22T16:08:54.266Z,75.93
2022-12-22T16:11:21.038Z,77.97
2022-12-22T16:13:49.973Z,75.13
2022-12-22T16:16:17.053Z,69.70
2022-12-22T16:18:43.697Z,77.25
2022-12-22T16:21:19.916Z,77.22
2022-12-22T16:23:49.088Z,82.43
2022-12-22T16:26:19.363Z,80.18
2022-12-22T16:28:46.790Z,79.65
2022-12-22T16:31:22.218Z,78.93
2022-12-22T16:33:49.988Z,82.65
2022-12-22T16:36:17.451Z,84.47
2022-12-22T16:38:45.918Z,84.55
2022-12-22T16:41:22.490Z,88.57
2022-12-22T16:49:03.047Z,83.43
2022-12-22T16:51:34.060Z,86.82
2022-12-22T16:54:01.667Z,89.07
2022-12-22T16:56:31.058Z,87.70
2022-12-22T16:58:57.995Z,93.45
2022-12-22T17:01:27.534Z,89.90
2022-12-22T17:03:55.084Z,91.28
2022-12-22T17:06:21.963Z,88.40
2022-12-22T17:08:49.079Z,91.47
2022-12-22T17:11:22.964Z,91.55
2022-12-22T17:13:53.388Z,91.87
2022-12-22T17:16:22.242Z,89.88
2022-12-22T17:18:49.191Z,94.72
2022-12-22T17:21:18.943Z,86.85
2022-12-22T17:23:51.875Z,88.03
2022-12-22T17:26:22.909Z,81.43
2022-12-22T17:28:50.264Z,90.93
2022-12-22T17:31:19.238Z,87.55
2022-12-22T17:33:46.216Z,86.78
2022-12-22T17:36:30.876Z,91.25
2022-12-22T17:38:58.194Z,88.32
2022-12-22T17:41:24.923Z,92.82
2022-12-22T17:43:51.668Z,85.78
2022-12-22T17:46:20.542Z,86.78
2022-12-22T17:48:48.456Z,83.35
2022-12-22T17:51:24.372Z,83.55
2022-12-22T17:53:52.721Z,85.35
2022-12-22T17:56:22.013Z,86.25
2022-12-22T17:58:48.814Z,81.32
2022-12-22T18:01:30.950Z,82.18
2022-12-22T18:03:58.554Z,81.15
2022-12-22T18:06:33.878Z,86.65
2022-12-22T18:09:01.305Z,83.07
2022-12-22T18:11:28.233Z,84.70
2022-12-22T18:13:57.330Z,83.43
2022-12-22T18:16:24.259Z,81.22
2022-12-22T18:18:51.492Z,83.68
2022-12-22T18:21:21.201Z,82.18
2022-12-22T18:23:50.706Z,80.82
2022-12-22T18:26:29.700Z,86.32
2022-12-22T18:28:57.273Z,81.70
2022-12-22T18:31:24.638Z,83.28
2022-12-22T18:33:51.807Z,82.93
2022-12-22T18:36:37.259Z,77.07
2022-12-22T18:39:04.625Z,81.85
2022-12-22T18:41:35.340Z,77.38
2022-12-22T18:44:01.968Z,80.20
2022-12-22T18:46:28.581Z,77.65
2022-12-22T18:48:57.751Z,76.05
2022-12-22T18:51:27.527Z,76.70
2022-12-22T18:53:54.735Z,78.88
2022-12-22T18:56:21.493Z,77.97
2022-12-22T18:58:48.261Z,77.82
2022-12-22T19:01:24.582Z,74.80
2022-12-22T19:03:53.729Z,79.35
2022-12-22T19:06:22.193Z,78.13
2022-12-22T19:08:50.087Z,74.47
2022-12-22T19:11:21.504Z,73.25
2022-12-22T19:13:51.239Z,73.43
2022-12-22T19:16:22.958Z,75.80
2022-12-22T19:18:49.657Z,74.75
2022-12-22T19:21:18.137Z,75.13
2022-12-22T19:23:45.114Z,74.22
2022-12-22T19:26:26.901Z,79.75
2022-12-22T19:29:01.232Z,74.93
2022-12-22T19:31:32.290Z,73.32
2022-12-22T19:34:02.849Z,74.55
2022-12-22T19:36:31.192Z,76.60
2022-12-22T19:39:03.867Z,75.95
2022-12-22T19:41:41.752Z,73.38
2022-12-22T19:44:30.404Z,79.35
2022-12-22T19:46:59.332Z,103.55
2022-12-22T19:49:27.448Z,75.93
2022-12-22T19:51:55.704Z,71.97
2022-12-22T19:54:22.519Z,73.47
2022-12-22T19:56:53.300Z,73.18
2022-12-22T19:59:38.626Z,76.07
2022-12-22T20:02:21.195Z,72.45
2022-12-22T20:04:48.827Z,74.60
2022-12-22T20:07:16.943Z,75.88
2022-12-22T20:09:43.505Z,79.72
2022-12-22T20:12:22.171Z,77.30
2022-12-22T20:14:48.872Z,73.05
2022-12-22T20:17:15.443Z,71.10
2022-12-22T20:19:42.174Z,92.93
2022-12-22T20:22:14.156Z,73.80
2022-12-22T20:24:40.770Z,69.97
2022-12-22T20:27:18.385Z,69.22
2022-12-22T20:29:44.934Z,69.43
2022-12-22T20:32:15.668Z,68.75
2022-12-22T20:34:42.442Z,68.63
2022-12-22T20:37:14.553Z,68.57
2022-12-22T20:39:41.394Z,67.65
2022-12-22T20:42:20.796Z,67.80
2022-12-22T20:45:03.045Z,67.88
2022-12-22T20:47:32.461Z,69.32
2022-12-22T20:49:59.543Z,68.25
2022-12-22T20:52:26.187Z,69.18
2022-12-22T20:54:52.772Z,66.13
2022-12-22T20:57:20.313Z,71.72
2022-12-22T20:59:53.865Z,66.70
2022-12-22T21:02:25.342Z,72.00
2022-12-22T21:04:52.068Z,69.25
2022-12-22T21:07:18.782Z,70.13
2022-12-22T21:09:45.367Z,71.38
2022-12-22T21:12:11.948Z,77.68
2022-12-22T21:14:38.559Z,71.10
2022-12-22T21:17:05.190Z,71.78
2022-12-22T21:19:31.934Z,73.35
2022-12-22T21:21:58.540Z,68.32
2022-12-22T21:24:25.097Z,68.10
2022-12-22T21:26:55.220Z,69.30
2022-12-22T21:29:25.285Z,65.65
2022-12-22T21:31:52.026Z,68.00
2022-12-22T21:34:20.834Z,66.07
2022-12-22T21:36:52.204Z,66.45
2022-12-22T21:39:31.415Z,66.43
2022-12-22T21:42:00.781Z,64.97
2022-12-22T21:44:30.832Z,74.78
2022-12-22T21:46:57.826Z,68.75
2022-12-22T21:49:27.277Z,69.32
2022-12-22T21:51:54.885Z,71.43
2022-12-22T21:54:23.812Z,72.57
2022-12-22T21:56:51.752Z,67.50
2022-12-22T21:59:18.631Z,65.70
2022-12-22T22:01:45.575Z,70.20
2022-12-22T22:04:12.965Z,70.85
2022-12-22T22:06:39.551Z,71.15
2022-12-22T22:09:07.236Z,70.35
2022-12-22T22:11:54.052Z,74.07
2022-12-22T22:14:21.087Z,72.80
2022-12-22T22:16:47.888Z,68.15
2022-12-22T22:19:14.493Z,72.57
2022-12-22T22:21:41.031Z,69.43
2022-12-22T22:24:07.723Z,66.35
2022-12-22T22:26:34.288Z,68.25
2022-12-22T22:29:00.838Z,67.63
2022-12-22T22:31:27.419Z,68.25
2022-12-22T22:33:54.133Z,65.43
2022-12-22T22:36:20.678Z,67.57
2022-12-22T22:38:50.712Z,68.68
2022-12-22T22:41:17.255Z,76.85
2022-12-22T22:43:43.846Z,73.38
2022-12-22T22:46:10.411Z,78.18
2022-12-22T22:48:37.285Z,74.88
2022-12-22T22:51:03.934Z,70.63
2022-12-22T22:53:30.842Z,69.07
2022-12-22T22:56:02.409Z,65.20
2022-12-22T22:58:29.722Z,68.30
2022-12-22T23:00:56.483Z,66.10
2022-12-22T23:03:23.337Z,70.25
2022-12-22T23:05:50.032Z,67.93
2022-12-22T23:08:16.601Z,68.70
2022-12-22T23:10:49.396Z,71.68
2022-12-22T23:13:15.971Z,66.43
2022-12-22T23:15:42.696Z,71.15
2022-12-22T23:18:09.322Z,68.95
2022-12-22T23:20:35.936Z,66.15
2022-12-22T23:23:02.549Z,63.88
2022-12-22T23:25:29.104Z,65.95
2022-12-22T23:27:55.687Z,61.90
2022-12-22T23:30:22.264Z,61.17
2022-12-22T23:32:48.813Z,58.88
2022-12-22T23:35:15.413Z,58.72
2022-12-22T23:37:41.955Z,62.58
2022-12-22T23:40:41.833Z,63.85
2022-12-22T23:42:57.234Z,67.90
2022-12-22T23:45:24.016Z,69.57
2022-12-22T23:47:50.556Z,67.22
2022-12-22T23:50:17.220Z,65.63
2022-12-22T23:52:48.929Z,63.65
2022-12-22T23:55:16.173Z,67.95
2022-12-22T23:57:43.284Z,63.17
